sensor_id;sensor_type;location;lat;lon;timestamp;P1;durP1;ratioP1;P2;durP2;ratioP2
57401;SDS011;43226;51.110;6.998;2023-04-21T00:01:40;14.07;;;9.57;;
57401;SDS011;43226;51.110;6.998;2023-04-21T00:04:05;15.57;;;10.43;;
57401;SDS011;43226;51.110;6.998;2023-04-21T00:06:31;17.97;;;10.40;;
57401;SDS011;43226;51.110;6.998;2023-04-21T00:08:57;19.80;;;12.00;;
57401;SDS011;43226;51.110;6.998;2023-04-21T00:11:22;20.40;;;10.80;;
57401;SDS011;43226;51.110;6.998;2023-04-21T00:13:47;18.23;;;11.23;;
57401;SDS011;43226;51.110;6.998;2023-04-21T00:16:12;17.60;;;10.50;;
57401;SDS011;43226;51.110;6.998;2023-04-21T00:18:37;19.13;;;10.90;;
57401;SDS011;43226;51.110;6.998;2023-04-21T00:21:03;21.80;;;11.83;;
57401;SDS011;43226;51.110;6.998;2023-04-21T00:23:28;23.27;;;11.90;;
57401;SDS011;43226;51.110;6.998;2023-04-21T00:25:53;24.00;;;12.67;;
57401;SDS011;43226;51.110;6.998;2023-04-21T00:28:18;17.30;;;10.10;;
57401;SDS011;43226;51.110;6.998;2023-04-21T00:30:43;20.70;;;12.80;;
57401;SDS011;43226;51.110;6.998;2023-04-21T00:33:09;21.43;;;12.00;;
57401;SDS011;43226;51.110;6.998;2023-04-21T00:35:34;18.70;;;10.37;;
57401;SDS011;43226;51.110;6.998;2023-04-21T00:37:59;22.53;;;12.23;;
57401;SDS011;43226;51.110;6.998;2023-04-21T00:40:25;17.93;;;10.73;;
57401;SDS011;43226;51.110;6.998;2023-04-21T00:42:50;21.13;;;12.00;;
57401;SDS011;43226;51.110;6.998;2023-04-21T00:45:15;19.83;;;11.13;;
57401;SDS011;43226;51.110;6.998;2023-04-21T00:47:41;21.07;;;11.60;;
57401;SDS011;43226;51.110;6.998;2023-04-21T00:50:06;22.27;;;11.43;;
57401;SDS011;43226;51.110;6.998;2023-04-21T00:52:32;21.60;;;11.63;;
57401;SDS011;43226;51.110;6.998;2023-04-21T00:54:58;15.73;;;9.93;;
57401;SDS011;43226;51.110;6.998;2023-04-21T00:57:24;21.00;;;11.63;;
57401;SDS011;43226;51.110;6.998;2023-04-21T00:59:49;18.27;;;12.03;;
57401;SDS011;43226;51.110;6.998;2023-04-21T01:02:15;20.03;;;12.20;;
57401;SDS011;43226;51.110;6.998;2023-04-21T01:04:41;18.17;;;10.50;;
57401;SDS011;43226;51.110;6.998;2023-04-21T01:07:06;15.00;;;9.90;;
57401;SDS011;43226;51.110;6.998;2023-04-21T01:09:32;16.60;;;10.43;;
57401;SDS011;43226;51.110;6.998;2023-04-21T01:14:27;21.43;;;10.83;;
57401;SDS011;43226;51.110;6.998;2023-04-21T01:16:52;17.10;;;11.00;;
57401;SDS011;43226;51.110;6.998;2023-04-21T01:19:17;23.37;;;10.53;;
57401;SDS011;43226;51.110;6.998;2023-04-21T01:21:44;13.37;;;7.67;;
57401;SDS011;43226;51.110;6.998;2023-04-21T01:24:09;17.50;;;9.80;;
57401;SDS011;43226;51.110;6.998;2023-04-21T01:26:35;16.30;;;9.90;;
57401;SDS011;43226;51.110;6.998;2023-04-21T01:29:00;14.33;;;9.30;;
57401;SDS011;43226;51.110;6.998;2023-04-21T01:31:25;19.43;;;10.10;;
57401;SDS011;43226;51.110;6.998;2023-04-21T01:33:51;17.47;;;9.23;;
57401;SDS011;43226;51.110;6.998;2023-04-21T01:36:16;16.20;;;10.17;;
57401;SDS011;43226;51.110;6.998;2023-04-21T01:38:41;17.73;;;9.53;;
57401;SDS011;43226;51.110;6.998;2023-04-21T01:41:07;18.87;;;9.90;;
57401;SDS011;43226;51.110;6.998;2023-04-21T01:43:32;13.20;;;9.20;;
57401;SDS011;43226;51.110;6.998;2023-04-21T01:45:57;16.57;;;10.07;;
57401;SDS011;43226;51.110;6.998;2023-04-21T01:48:23;16.73;;;9.73;;
57401;SDS011;43226;51.110;6.998;2023-04-21T01:50:48;13.47;;;8.70;;
57401;SDS011;43226;51.110;6.998;2023-04-21T01:53:13;17.13;;;9.67;;
57401;SDS011;43226;51.110;6.998;2023-04-21T01:55:38;19.03;;;9.60;;
57401;SDS011;43226;51.110;6.998;2023-04-21T01:58:03;20.23;;;9.20;;
57401;SDS011;43226;51.110;6.998;2023-04-21T02:00:29;14.47;;;8.97;;
57401;SDS011;43226;51.110;6.998;2023-04-21T02:02:54;15.20;;;9.07;;
57401;SDS011;43226;51.110;6.998;2023-04-21T02:05:19;12.77;;;8.67;;
57401;SDS011;43226;51.110;6.998;2023-04-21T02:07:44;16.13;;;8.40;;
57401;SDS011;43226;51.110;6.998;2023-04-21T02:10:09;23.50;;;9.80;;
57401;SDS011;43226;51.110;6.998;2023-04-21T02:12:35;15.53;;;8.43;;
57401;SDS011;43226;51.110;6.998;2023-04-21T02:15:00;13.53;;;9.20;;
57401;SDS011;43226;51.110;6.998;2023-04-21T02:17:25;18.30;;;9.20;;
57401;SDS011;43226;51.110;6.998;2023-04-21T02:19:50;15.90;;;9.03;;
57401;SDS011;43226;51.110;6.998;2023-04-21T02:22:16;14.07;;;8.47;;
57401;SDS011;43226;51.110;6.998;2023-04-21T02:24:41;19.50;;;9.90;;
57401;SDS011;43226;51.110;6.998;2023-04-21T02:27:06;16.10;;;10.00;;
57401;SDS011;43226;51.110;6.998;2023-04-21T02:29:31;16.83;;;9.57;;
57401;SDS011;43226;51.110;6.998;2023-04-21T02:31:56;18.53;;;9.20;;
57401;SDS011;43226;51.110;6.998;2023-04-21T02:34:22;16.80;;;10.00;;
57401;SDS011;43226;51.110;6.998;2023-04-21T02:36:47;18.13;;;9.10;;
57401;SDS011;43226;51.110;6.998;2023-04-21T02:39:12;15.23;;;8.33;;
57401;SDS011;43226;51.110;6.998;2023-04-21T02:41:38;16.00;;;8.47;;
57401;SDS011;43226;51.110;6.998;2023-04-21T02:44:03;19.17;;;8.53;;
57401;SDS011;43226;51.110;6.998;2023-04-21T02:46:28;16.57;;;8.30;;
57401;SDS011;43226;51.110;6.998;2023-04-21T02:48:53;13.77;;;7.90;;
57401;SDS011;43226;51.110;6.998;2023-04-21T02:51:18;15.30;;;8.80;;
57401;SDS011;43226;51.110;6.998;2023-04-21T02:53:44;20.27;;;10.00;;
57401;SDS011;43226;51.110;6.998;2023-04-21T02:56:09;21.50;;;9.97;;
57401;SDS011;43226;51.110;6.998;2023-04-21T02:58:34;12.07;;;8.57;;
57401;SDS011;43226;51.110;6.998;2023-04-21T03:01:00;16.00;;;9.30;;
57401;SDS011;43226;51.110;6.998;2023-04-21T03:03:26;16.90;;;8.87;;
57401;SDS011;43226;51.110;6.998;2023-04-21T03:06:01;16.93;;;9.73;;
57401;SDS011;43226;51.110;6.998;2023-04-21T03:08:26;20.80;;;10.93;;
57401;SDS011;43226;51.110;6.998;2023-04-21T03:10:52;14.60;;;8.87;;
57401;SDS011;43226;51.110;6.998;2023-04-21T03:13:17;14.63;;;8.77;;
57401;SDS011;43226;51.110;6.998;2023-04-21T03:15:42;18.20;;;8.43;;
57401;SDS011;43226;51.110;6.998;2023-04-21T03:18:07;14.80;;;8.20;;
57401;SDS011;43226;51.110;6.998;2023-04-21T03:20:33;13.47;;;7.00;;
57401;SDS011;43226;51.110;6.998;2023-04-21T03:22:58;16.60;;;8.50;;
57401;SDS011;43226;51.110;6.998;2023-04-21T03:25:23;18.63;;;8.93;;
57401;SDS011;43226;51.110;6.998;2023-04-21T03:27:49;13.43;;;8.27;;
57401;SDS011;43226;51.110;6.998;2023-04-21T03:30:14;15.43;;;9.07;;
57401;SDS011;43226;51.110;6.998;2023-04-21T03:32:39;16.63;;;7.10;;
57401;SDS011;43226;51.110;6.998;2023-04-21T03:35:05;18.40;;;9.00;;
57401;SDS011;43226;51.110;6.998;2023-04-21T03:37:30;15.30;;;9.13;;
57401;SDS011;43226;51.110;6.998;2023-04-21T03:39:55;16.70;;;9.30;;
57401;SDS011;43226;51.110;6.998;2023-04-21T03:42:20;12.83;;;7.97;;
57401;SDS011;43226;51.110;6.998;2023-04-21T03:44:46;16.97;;;8.57;;
57401;SDS011;43226;51.110;6.998;2023-04-21T03:47:11;15.90;;;8.67;;
57401;SDS011;43226;51.110;6.998;2023-04-21T03:49:36;13.90;;;9.17;;
57401;SDS011;43226;51.110;6.998;2023-04-21T03:52:01;14.73;;;8.60;;
57401;SDS011;43226;51.110;6.998;2023-04-21T03:54:26;14.60;;;9.20;;
57401;SDS011;43226;51.110;6.998;2023-04-21T03:56:51;17.90;;;8.80;;
57401;SDS011;43226;51.110;6.998;2023-04-21T03:59:17;17.17;;;9.37;;
57401;SDS011;43226;51.110;6.998;2023-04-21T04:01:42;16.40;;;9.30;;
57401;SDS011;43226;51.110;6.998;2023-04-21T04:04:07;17.97;;;9.50;;
57401;SDS011;43226;51.110;6.998;2023-04-21T04:06:32;16.30;;;9.27;;
57401;SDS011;43226;51.110;6.998;2023-04-21T04:08:59;16.33;;;9.30;;
57401;SDS011;43226;51.110;6.998;2023-04-21T04:11:26;15.93;;;9.27;;
57401;SDS011;43226;51.110;6.998;2023-04-21T04:13:51;16.43;;;8.80;;
57401;SDS011;43226;51.110;6.998;2023-04-21T04:16:16;15.40;;;7.93;;
57401;SDS011;43226;51.110;6.998;2023-04-21T04:18:42;16.50;;;8.80;;
57401;SDS011;43226;51.110;6.998;2023-04-21T04:21:07;18.27;;;9.20;;
57401;SDS011;43226;51.110;6.998;2023-04-21T04:23:35;12.80;;;7.87;;
57401;SDS011;43226;51.110;6.998;2023-04-21T04:26:01;17.83;;;8.90;;
57401;SDS011;43226;51.110;6.998;2023-04-21T04:28:29;13.83;;;8.73;;
57401;SDS011;43226;51.110;6.998;2023-04-21T04:30:54;14.47;;;8.70;;
57401;SDS011;43226;51.110;6.998;2023-04-21T04:33:19;14.60;;;8.93;;
57401;SDS011;43226;51.110;6.998;2023-04-21T04:35:45;16.50;;;9.60;;
57401;SDS011;43226;51.110;6.998;2023-04-21T04:38:10;17.30;;;8.80;;
57401;SDS011;43226;51.110;6.998;2023-04-21T04:40:36;17.87;;;8.63;;
57401;SDS011;43226;51.110;6.998;2023-04-21T04:43:02;15.80;;;8.97;;
57401;SDS011;43226;51.110;6.998;2023-04-21T04:45:27;14.00;;;8.93;;
57401;SDS011;43226;51.110;6.998;2023-04-21T04:47:56;19.37;;;9.00;;
57401;SDS011;43226;51.110;6.998;2023-04-21T04:50:21;17.90;;;9.40;;
57401;SDS011;43226;51.110;6.998;2023-04-21T04:52:46;17.97;;;9.77;;
57401;SDS011;43226;51.110;6.998;2023-04-21T04:55:13;17.67;;;9.03;;
57401;SDS011;43226;51.110;6.998;2023-04-21T04:57:38;18.83;;;9.97;;
57401;SDS011;43226;51.110;6.998;2023-04-21T05:00:04;19.90;;;10.03;;
57401;SDS011;43226;51.110;6.998;2023-04-21T05:02:31;17.93;;;10.10;;
57401;SDS011;43226;51.110;6.998;2023-04-21T05:04:56;20.20;;;9.60;;
57401;SDS011;43226;51.110;6.998;2023-04-21T05:07:21;17.80;;;9.00;;
57401;SDS011;43226;51.110;6.998;2023-04-21T05:09:46;16.03;;;9.00;;
57401;SDS011;43226;51.110;6.998;2023-04-21T05:12:11;16.83;;;9.23;;
57401;SDS011;43226;51.110;6.998;2023-04-21T05:14:37;14.10;;;8.47;;
57401;SDS011;43226;51.110;6.998;2023-04-21T05:17:02;18.07;;;8.73;;
57401;SDS011;43226;51.110;6.998;2023-04-21T05:19:27;18.90;;;8.13;;
57401;SDS011;43226;51.110;6.998;2023-04-21T05:21:56;17.37;;;9.57;;
57401;SDS011;43226;51.110;6.998;2023-04-21T05:24:22;17.50;;;10.13;;
57401;SDS011;43226;51.110;6.998;2023-04-21T05:26:48;15.20;;;8.93;;
57401;SDS011;43226;51.110;6.998;2023-04-21T05:29:13;12.73;;;7.50;;
57401;SDS011;43226;51.110;6.998;2023-04-21T05:31:38;14.70;;;9.47;;
57401;SDS011;43226;51.110;6.998;2023-04-21T05:34:03;15.07;;;7.93;;
57401;SDS011;43226;51.110;6.998;2023-04-21T05:36:29;15.90;;;8.83;;
57401;SDS011;43226;51.110;6.998;2023-04-21T05:38:55;13.77;;;8.80;;
57401;SDS011;43226;51.110;6.998;2023-04-21T05:41:20;16.40;;;8.90;;
57401;SDS011;43226;51.110;6.998;2023-04-21T05:43:46;14.83;;;8.23;;
57401;SDS011;43226;51.110;6.998;2023-04-21T05:46:11;17.77;;;8.97;;
57401;SDS011;43226;51.110;6.998;2023-04-21T05:48:37;15.70;;;7.97;;
57401;SDS011;43226;51.110;6.998;2023-04-21T05:51:12;12.73;;;8.13;;
57401;SDS011;43226;51.110;6.998;2023-04-21T05:53:38;18.80;;;8.77;;
57401;SDS011;43226;51.110;6.998;2023-04-21T05:56:03;17.73;;;8.70;;
57401;SDS011;43226;51.110;6.998;2023-04-21T05:58:28;13.57;;;8.13;;
57401;SDS011;43226;51.110;6.998;2023-04-21T06:00:53;16.20;;;8.90;;
57401;SDS011;43226;51.110;6.998;2023-04-21T06:03:19;13.07;;;6.83;;
57401;SDS011;43226;51.110;6.998;2023-04-21T06:05:44;14.73;;;8.10;;
57401;SDS011;43226;51.110;6.998;2023-04-21T06:08:09;14.70;;;7.73;;
57401;SDS011;43226;51.110;6.998;2023-04-21T06:10:34;18.87;;;10.43;;
57401;SDS011;43226;51.110;6.998;2023-04-21T06:13:00;13.80;;;8.50;;
57401;SDS011;43226;51.110;6.998;2023-04-21T06:15:25;16.03;;;8.10;;
57401;SDS011;43226;51.110;6.998;2023-04-21T06:17:53;11.90;;;7.00;;
57401;SDS011;43226;51.110;6.998;2023-04-21T06:20:19;13.07;;;7.93;;
57401;SDS011;43226;51.110;6.998;2023-04-21T06:22:44;12.53;;;8.27;;
57401;SDS011;43226;51.110;6.998;2023-04-21T06:25:10;15.67;;;8.40;;
57401;SDS011;43226;51.110;6.998;2023-04-21T06:27:35;17.53;;;8.17;;
57401;SDS011;43226;51.110;6.998;2023-04-21T06:30:00;10.20;;;7.90;;
57401;SDS011;43226;51.110;6.998;2023-04-21T06:32:32;16.47;;;9.27;;
57401;SDS011;43226;51.110;6.998;2023-04-21T06:34:57;11.67;;;7.30;;
57401;SDS011;43226;51.110;6.998;2023-04-21T06:37:22;13.90;;;7.90;;
57401;SDS011;43226;51.110;6.998;2023-04-21T06:39:47;14.93;;;8.77;;
57401;SDS011;43226;51.110;6.998;2023-04-21T06:42:12;14.80;;;9.03;;
57401;SDS011;43226;51.110;6.998;2023-04-21T06:44:38;12.90;;;7.57;;
57401;SDS011;43226;51.110;6.998;2023-04-21T06:47:03;11.87;;;7.50;;
57401;SDS011;43226;51.110;6.998;2023-04-21T06:49:28;13.63;;;7.83;;
57401;SDS011;43226;51.110;6.998;2023-04-21T06:51:53;10.80;;;7.80;;
57401;SDS011;43226;51.110;6.998;2023-04-21T06:54:18;11.57;;;7.97;;
57401;SDS011;43226;51.110;6.998;2023-04-21T06:56:44;13.80;;;7.83;;
57401;SDS011;43226;51.110;6.998;2023-04-21T06:59:09;15.60;;;8.80;;
57401;SDS011;43226;51.110;6.998;2023-04-21T07:01:34;16.53;;;8.70;;
57401;SDS011;43226;51.110;6.998;2023-04-21T07:03:59;14.60;;;8.20;;
57401;SDS011;43226;51.110;6.998;2023-04-21T07:06:25;15.67;;;8.80;;
57401;SDS011;43226;51.110;6.998;2023-04-21T07:08:50;16.57;;;7.77;;
57401;SDS011;43226;51.110;6.998;2023-04-21T07:11:15;15.70;;;8.73;;
57401;SDS011;43226;51.110;6.998;2023-04-21T07:13:40;12.43;;;7.87;;
57401;SDS011;43226;51.110;6.998;2023-04-21T07:16:06;11.60;;;7.50;;
57401;SDS011;43226;51.110;6.998;2023-04-21T07:18:31;12.90;;;7.60;;
57401;SDS011;43226;51.110;6.998;2023-04-21T07:20:56;18.63;;;9.67;;
57401;SDS011;43226;51.110;6.998;2023-04-21T07:23:22;17.10;;;9.17;;
57401;SDS011;43226;51.110;6.998;2023-04-21T07:25:47;19.03;;;8.93;;
57401;SDS011;43226;51.110;6.998;2023-04-21T07:28:12;18.50;;;9.23;;
57401;SDS011;43226;51.110;6.998;2023-04-21T07:30:39;18.37;;;9.57;;
57401;SDS011;43226;51.110;6.998;2023-04-21T07:33:05;18.10;;;9.77;;
57401;SDS011;43226;51.110;6.998;2023-04-21T07:35:30;14.70;;;8.83;;
57401;SDS011;43226;51.110;6.998;2023-04-21T07:37:55;17.33;;;10.17;;
57401;SDS011;43226;51.110;6.998;2023-04-21T07:40:20;17.47;;;9.97;;
57401;SDS011;43226;51.110;6.998;2023-04-21T07:42:46;19.30;;;9.30;;
57401;SDS011;43226;51.110;6.998;2023-04-21T07:45:11;15.43;;;9.47;;
57401;SDS011;43226;51.110;6.998;2023-04-21T07:47:36;17.17;;;10.37;;
57401;SDS011;43226;51.110;6.998;2023-04-21T07:50:01;15.50;;;8.00;;
57401;SDS011;43226;51.110;6.998;2023-04-21T07:52:27;17.00;;;8.97;;
57401;SDS011;43226;51.110;6.998;2023-04-21T07:54:52;16.83;;;9.40;;
57401;SDS011;43226;51.110;6.998;2023-04-21T07:57:17;17.10;;;9.50;;
57401;SDS011;43226;51.110;6.998;2023-04-21T07:59:42;15.70;;;9.33;;
57401;SDS011;43226;51.110;6.998;2023-04-21T08:02:08;19.90;;;10.67;;
57401;SDS011;43226;51.110;6.998;2023-04-21T08:04:33;17.93;;;10.43;;
57401;SDS011;43226;51.110;6.998;2023-04-21T08:06:58;15.97;;;9.90;;
57401;SDS011;43226;51.110;6.998;2023-04-21T08:09:23;19.47;;;9.73;;
57401;SDS011;43226;51.110;6.998;2023-04-21T08:11:48;15.63;;;9.50;;
57401;SDS011;43226;51.110;6.998;2023-04-21T08:14:14;17.17;;;8.83;;
57401;SDS011;43226;51.110;6.998;2023-04-21T08:16:39;18.83;;;10.17;;
57401;SDS011;43226;51.110;6.998;2023-04-21T08:19:06;16.37;;;10.30;;
57401;SDS011;43226;51.110;6.998;2023-04-21T08:21:31;18.73;;;10.10;;
57401;SDS011;43226;51.110;6.998;2023-04-21T08:23:57;14.30;;;9.30;;
57401;SDS011;43226;51.110;6.998;2023-04-21T08:26:22;16.13;;;10.30;;
57401;SDS011;43226;51.110;6.998;2023-04-21T08:28:49;21.20;;;10.40;;
57401;SDS011;43226;51.110;6.998;2023-04-21T08:31:15;19.73;;;10.17;;
57401;SDS011;43226;51.110;6.998;2023-04-21T08:33:41;22.03;;;11.20;;
57401;SDS011;43226;51.110;6.998;2023-04-21T08:36:06;15.10;;;9.50;;
57401;SDS011;43226;51.110;6.998;2023-04-21T08:38:32;18.37;;;10.03;;
57401;SDS011;43226;51.110;6.998;2023-04-21T08:40:57;19.80;;;11.00;;
57401;SDS011;43226;51.110;6.998;2023-04-21T08:43:23;13.73;;;8.50;;
57401;SDS011;43226;51.110;6.998;2023-04-21T08:45:48;18.50;;;11.07;;
57401;SDS011;43226;51.110;6.998;2023-04-21T08:48:15;13.30;;;8.67;;
57401;SDS011;43226;51.110;6.998;2023-04-21T08:50:42;15.20;;;9.77;;
57401;SDS011;43226;51.110;6.998;2023-04-21T08:53:08;15.77;;;9.57;;
57401;SDS011;43226;51.110;6.998;2023-04-21T08:55:35;14.20;;;9.17;;
57401;SDS011;43226;51.110;6.998;2023-04-21T08:58:02;14.80;;;9.33;;
57401;SDS011;43226;51.110;6.998;2023-04-21T09:00:28;15.43;;;9.77;;
57401;SDS011;43226;51.110;6.998;2023-04-21T09:02:54;17.90;;;10.50;;
57401;SDS011;43226;51.110;6.998;2023-04-21T09:05:26;16.67;;;8.80;;
57401;SDS011;43226;51.110;6.998;2023-04-21T09:07:52;17.53;;;9.77;;
57401;SDS011;43226;51.110;6.998;2023-04-21T09:10:22;14.93;;;9.43;;
57401;SDS011;43226;51.110;6.998;2023-04-21T09:12:53;18.40;;;10.13;;
57401;SDS011;43226;51.110;6.998;2023-04-21T09:15:19;14.77;;;8.47;;
57401;SDS011;43226;51.110;6.998;2023-04-21T09:17:44;19.80;;;9.70;;
57401;SDS011;43226;51.110;6.998;2023-04-21T09:20:11;17.20;;;9.30;;
57401;SDS011;43226;51.110;6.998;2023-04-21T09:22:37;16.37;;;8.63;;
57401;SDS011;43226;51.110;6.998;2023-04-21T09:25:02;15.23;;;9.37;;
57401;SDS011;43226;51.110;6.998;2023-04-21T09:27:27;16.10;;;9.80;;
57401;SDS011;43226;51.110;6.998;2023-04-21T09:29:53;13.23;;;9.30;;
57401;SDS011;43226;51.110;6.998;2023-04-21T09:32:18;14.30;;;9.20;;
57401;SDS011;43226;51.110;6.998;2023-04-21T09:34:43;16.50;;;10.37;;
57401;SDS011;43226;51.110;6.998;2023-04-21T09:37:09;18.13;;;9.37;;
57401;SDS011;43226;51.110;6.998;2023-04-21T09:39:35;21.90;;;10.17;;
57401;SDS011;43226;51.110;6.998;2023-04-21T09:42:00;16.27;;;10.23;;
57401;SDS011;43226;51.110;6.998;2023-04-21T09:44:26;16.50;;;10.17;;
57401;SDS011;43226;51.110;6.998;2023-04-21T09:46:53;15.53;;;8.37;;
57401;SDS011;43226;51.110;6.998;2023-04-21T09:49:22;18.57;;;9.67;;
57401;SDS011;43226;51.110;6.998;2023-04-21T09:51:48;18.67;;;10.80;;
57401;SDS011;43226;51.110;6.998;2023-04-21T09:54:17;17.20;;;9.77;;
57401;SDS011;43226;51.110;6.998;2023-04-21T09:56:43;15.13;;;8.93;;
57401;SDS011;43226;51.110;6.998;2023-04-21T09:59:12;17.37;;;10.07;;
57401;SDS011;43226;51.110;6.998;2023-04-21T10:01:37;16.37;;;9.77;;
57401;SDS011;43226;51.110;6.998;2023-04-21T10:04:03;24.17;;;9.73;;
57401;SDS011;43226;51.110;6.998;2023-04-21T10:06:29;19.20;;;9.60;;
57401;SDS011;43226;51.110;6.998;2023-04-21T10:08:56;16.13;;;9.60;;
57401;SDS011;43226;51.110;6.998;2023-04-21T10:11:21;20.47;;;10.27;;
57401;SDS011;43226;51.110;6.998;2023-04-21T10:13:48;16.43;;;8.13;;
57401;SDS011;43226;51.110;6.998;2023-04-21T10:16:13;19.53;;;10.07;;
57401;SDS011;43226;51.110;6.998;2023-04-21T10:18:44;17.87;;;10.20;;
57401;SDS011;43226;51.110;6.998;2023-04-21T10:21:10;18.07;;;11.27;;
57401;SDS011;43226;51.110;6.998;2023-04-21T10:23:43;17.63;;;9.77;;
57401;SDS011;43226;51.110;6.998;2023-04-21T10:26:12;15.07;;;9.23;;
57401;SDS011;43226;51.110;6.998;2023-04-21T10:28:42;11.27;;;7.60;;
57401;SDS011;43226;51.110;6.998;2023-04-21T10:31:21;14.17;;;8.63;;
57401;SDS011;43226;51.110;6.998;2023-04-21T10:34:20;19.03;;;9.00;;
57401;SDS011;43226;51.110;6.998;2023-04-21T10:39:10;13.67;;;9.47;;
57401;SDS011;43226;51.110;6.998;2023-04-21T10:41:41;16.17;;;9.00;;
57401;SDS011;43226;51.110;6.998;2023-04-21T10:44:11;18.37;;;9.33;;
57401;SDS011;43226;51.110;6.998;2023-04-21T10:46:37;13.87;;;9.13;;
57401;SDS011;43226;51.110;6.998;2023-04-21T10:49:03;12.60;;;7.27;;
57401;SDS011;43226;51.110;6.998;2023-04-21T10:51:29;16.53;;;7.97;;
57401;SDS011;43226;51.110;6.998;2023-04-21T10:53:56;13.60;;;7.90;;
57401;SDS011;43226;51.110;6.998;2023-04-21T10:56:21;14.83;;;8.50;;
57401;SDS011;43226;51.110;6.998;2023-04-21T10:58:48;12.83;;;7.60;;
57401;SDS011;43226;51.110;6.998;2023-04-21T11:01:13;13.07;;;7.83;;
57401;SDS011;43226;51.110;6.998;2023-04-21T11:03:38;11.53;;;6.90;;
57401;SDS011;43226;51.110;6.998;2023-04-21T11:06:12;14.50;;;7.70;;
57401;SDS011;43226;51.110;6.998;2023-04-21T11:08:53;9.63;;;6.57;;
57401;SDS011;43226;51.110;6.998;2023-04-21T11:11:22;11.57;;;7.90;;
57401;SDS011;43226;51.110;6.998;2023-04-21T11:13:51;10.50;;;6.60;;
57401;SDS011;43226;51.110;6.998;2023-04-21T11:16:17;11.10;;;7.23;;
57401;SDS011;43226;51.110;6.998;2023-04-21T11:18:43;11.80;;;6.83;;
57401;SDS011;43226;51.110;6.998;2023-04-21T11:21:15;11.97;;;6.77;;
57401;SDS011;43226;51.110;6.998;2023-04-21T11:23:53;10.97;;;7.20;;
57401;SDS011;43226;51.110;6.998;2023-04-21T11:26:21;11.80;;;7.03;;
57401;SDS011;43226;51.110;6.998;2023-04-21T11:28:53;10.10;;;6.67;;
57401;SDS011;43226;51.110;6.998;2023-04-21T11:31:18;10.10;;;6.60;;
57401;SDS011;43226;51.110;6.998;2023-04-21T11:33:43;10.77;;;7.23;;
57401;SDS011;43226;51.110;6.998;2023-04-21T11:36:08;10.50;;;6.50;;
57401;SDS011;43226;51.110;6.998;2023-04-21T11:38:40;11.27;;;6.40;;
57401;SDS011;43226;51.110;6.998;2023-04-21T11:41:05;10.87;;;6.10;;
57401;SDS011;43226;51.110;6.998;2023-04-21T11:43:31;8.90;;;6.07;;
57401;SDS011;43226;51.110;6.998;2023-04-21T11:48:41;11.30;;;5.83;;
57401;SDS011;43226;51.110;6.998;2023-04-21T11:51:12;11.50;;;6.20;;
57401;SDS011;43226;51.110;6.998;2023-04-21T11:53:38;9.77;;;6.00;;
57401;SDS011;43226;51.110;6.998;2023-04-21T11:56:03;11.03;;;6.70;;
57401;SDS011;43226;51.110;6.998;2023-04-21T11:58:30;14.00;;;7.20;;
57401;SDS011;43226;51.110;6.998;2023-04-21T12:00:55;14.33;;;7.60;;
57401;SDS011;43226;51.110;6.998;2023-04-21T12:03:20;9.63;;;6.30;;
57401;SDS011;43226;51.110;6.998;2023-04-21T12:05:45;8.60;;;6.33;;
57401;SDS011;43226;51.110;6.998;2023-04-21T12:08:14;12.87;;;7.30;;
57401;SDS011;43226;51.110;6.998;2023-04-21T12:10:43;11.27;;;7.20;;
57401;SDS011;43226;51.110;6.998;2023-04-21T12:13:08;10.20;;;5.83;;
57401;SDS011;43226;51.110;6.998;2023-04-21T12:15:33;12.23;;;6.63;;
57401;SDS011;43226;51.110;6.998;2023-04-21T12:17:58;9.13;;;6.37;;
57401;SDS011;43226;51.110;6.998;2023-04-21T12:20:24;12.87;;;7.17;;
57401;SDS011;43226;51.110;6.998;2023-04-21T12:22:52;10.40;;;6.97;;
57401;SDS011;43226;51.110;6.998;2023-04-21T12:25:17;10.40;;;6.60;;
57401;SDS011;43226;51.110;6.998;2023-04-21T12:27:52;7.77;;;5.33;;
57401;SDS011;43226;51.110;6.998;2023-04-21T12:30:18;6.67;;;4.87;;
57401;SDS011;43226;51.110;6.998;2023-04-21T12:32:43;11.90;;;7.00;;
57401;SDS011;43226;51.110;6.998;2023-04-21T12:35:08;7.60;;;5.70;;
57401;SDS011;43226;51.110;6.998;2023-04-21T12:37:34;8.83;;;5.87;;
57401;SDS011;43226;51.110;6.998;2023-04-21T12:40:00;9.80;;;6.27;;
57401;SDS011;43226;51.110;6.998;2023-04-21T12:42:25;11.07;;;6.47;;
57401;SDS011;43226;51.110;6.998;2023-04-21T12:44:50;10.80;;;5.87;;
57401;SDS011;43226;51.110;6.998;2023-04-21T12:47:15;9.20;;;6.27;;
57401;SDS011;43226;51.110;6.998;2023-04-21T12:49:40;7.43;;;5.03;;
57401;SDS011;43226;51.110;6.998;2023-04-21T12:52:06;9.47;;;6.30;;
57401;SDS011;43226;51.110;6.998;2023-04-21T12:54:31;7.60;;;5.23;;
57401;SDS011;43226;51.110;6.998;2023-04-21T12:56:56;10.10;;;6.30;;
57401;SDS011;43226;51.110;6.998;2023-04-21T12:59:22;12.40;;;7.03;;
57401;SDS011;43226;51.110;6.998;2023-04-21T13:01:47;7.63;;;5.00;;
57401;SDS011;43226;51.110;6.998;2023-04-21T13:04:12;8.60;;;6.30;;
57401;SDS011;43226;51.110;6.998;2023-04-21T13:06:38;9.57;;;6.33;;
57401;SDS011;43226;51.110;6.998;2023-04-21T13:09:04;10.30;;;5.50;;
57401;SDS011;43226;51.110;6.998;2023-04-21T13:11:29;7.83;;;5.67;;
57401;SDS011;43226;51.110;6.998;2023-04-21T13:13:55;11.17;;;5.80;;
57401;SDS011;43226;51.110;6.998;2023-04-21T13:16:20;10.23;;;6.17;;
57401;SDS011;43226;51.110;6.998;2023-04-21T13:18:45;10.80;;;6.20;;
57401;SDS011;43226;51.110;6.998;2023-04-21T13:21:11;6.40;;;4.87;;
57401;SDS011;43226;51.110;6.998;2023-04-21T13:23:36;8.10;;;5.80;;
57401;SDS011;43226;51.110;6.998;2023-04-21T13:26:02;8.63;;;5.13;;
57401;SDS011;43226;51.110;6.998;2023-04-21T13:28:27;10.00;;;5.70;;
57401;SDS011;43226;51.110;6.998;2023-04-21T13:30:52;6.47;;;4.57;;
57401;SDS011;43226;51.110;6.998;2023-04-21T13:33:18;5.83;;;4.90;;
57401;SDS011;43226;51.110;6.998;2023-04-21T13:35:43;7.87;;;4.60;;
57401;SDS011;43226;51.110;6.998;2023-04-21T13:38:08;8.40;;;4.57;;
57401;SDS011;43226;51.110;6.998;2023-04-21T13:40:33;6.20;;;4.37;;
57401;SDS011;43226;51.110;6.998;2023-04-21T13:42:59;8.17;;;5.10;;
57401;SDS011;43226;51.110;6.998;2023-04-21T13:45:24;5.87;;;4.17;;
57401;SDS011;43226;51.110;6.998;2023-04-21T13:47:50;6.67;;;4.63;;
57401;SDS011;43226;51.110;6.998;2023-04-21T13:50:16;6.43;;;4.33;;
57401;SDS011;43226;51.110;6.998;2023-04-21T13:52:41;5.83;;;4.07;;
57401;SDS011;43226;51.110;6.998;2023-04-21T13:55:06;6.63;;;5.10;;
57401;SDS011;43226;51.110;6.998;2023-04-21T13:57:31;10.07;;;5.20;;
57401;SDS011;43226;51.110;6.998;2023-04-21T13:59:57;3.80;;;3.43;;
57401;SDS011;43226;51.110;6.998;2023-04-21T14:02:22;5.83;;;3.77;;
57401;SDS011;43226;51.110;6.998;2023-04-21T14:04:49;6.17;;;3.97;;
57401;SDS011;43226;51.110;6.998;2023-04-21T14:07:14;5.93;;;3.90;;
57401;SDS011;43226;51.110;6.998;2023-04-21T14:09:42;6.30;;;4.40;;
57401;SDS011;43226;51.110;6.998;2023-04-21T14:12:07;6.73;;;3.73;;
57401;SDS011;43226;51.110;6.998;2023-04-21T14:14:33;6.13;;;4.10;;
57401;SDS011;43226;51.110;6.998;2023-04-21T14:16:58;4.53;;;3.60;;
57401;SDS011;43226;51.110;6.998;2023-04-21T14:19:23;5.87;;;4.60;;
57401;SDS011;43226;51.110;6.998;2023-04-21T14:21:48;6.30;;;4.23;;
57401;SDS011;43226;51.110;6.998;2023-04-21T14:24:13;4.60;;;3.60;;
57401;SDS011;43226;51.110;6.998;2023-04-21T14:26:38;4.40;;;3.67;;
57401;SDS011;43226;51.110;6.998;2023-04-21T14:29:04;4.73;;;3.90;;
57401;SDS011;43226;51.110;6.998;2023-04-21T14:31:29;6.47;;;4.27;;
57401;SDS011;43226;51.110;6.998;2023-04-21T14:33:54;5.40;;;4.20;;